KHLR/HLR METAR and TAF weather

Enter ICAO airport designator
Station Type Date Time Source
KHLR METAR 2019/12/12 08:58 UTC NOAA

KHLR 120858Z AUTO 15003KT 10SM CLR 02/00 A3033 RMK AO2 SLP273 T00210002 57017 $


Station Type Date Time Source
KHLR Decoded METAR 2019/12/12 08:58 UTC NOAA

Fort Hood, Hood AAF Ft Hood, TX, United States (KHLR) 31-08N 097-42W
Dec 12, 2019 - 03:58 AM EST / 2019.12.12 0858 UTC
Wind: from the SSE (150 degrees) at 3 MPH (3 KT):0
Visibility: 10 mile(s):0
Sky conditions: clear
Temperature: 35.8 F (2.1 C)
Dew Point: 32.4 F (0.2 C)
Relative Humidity: 87%
Pressure (altimeter): 30.33 in. Hg (1027 hPa)
Pressure tendency: 0.05 inches (1.7 hPa) lower than three hours ago
ob: KHLR 120858Z AUTO 15003KT 10SM CLR 02/00 A3033 RMK AO2 SLP273 T00210002 57017
cycle: 9

Station Type Date Time Source
KHLR TAF UTC NOAA

Error!

Example: see airport list